aviador You're here:

LFPM Decoded Metar

MELUN in FRANCE
Report Time2017-11-25 07:30:00
UTC Time2017-11-25 07:37:14
Flight Rules mvfr MVFR
Wind240° at 09 kt
W.Decomp.*RWY 28: 6.9 kt HW 5.8 kt LCW
RWY 19: 5.8 kt HW 6.9 kt RCW
W.Rank240° ranks 6
Current wind is below 240° avg. (9.2)
Visibility9999 m
Phenomena:N/A
Clouds:Overcast 013 Hf
Expected CloudBase > 800 ft AGL from Temp-Dew spread
Ceiling1,300 ft
Temp06°C (ISA -8)
Dew Point04°C (87% RH)
AAT1.4°C
QNH1012 hPa
Density Alt-564 ft
Elevation302 ft
Report Wrong Elevation
Raw Report
METAR LFPM 250730Z AUTO 24009KT 9999 OVC013 06/04 Q1012=

Extra information for LFPM:More info

Metar Taf Metar & Taf Last 4 Metars F.Rules Stats Wind Profile Meteogram Temp Stats Airport Information Weather charts Add Link Nearby VenuesMetar ALERT Operation Metar Decoded Social comments